sensor_id;sensor_type;location;lat;lon;timestamp;temperature;humidity
3954;DHT22;1991;48.682;9.030;2023-06-22T00:00:29;21.20;99.90
3954;DHT22;1991;48.682;9.030;2023-06-22T00:02:55;21.10;99.90
3954;DHT22;1991;48.682;9.030;2023-06-22T00:05:20;21.10;99.90
3954;DHT22;1991;48.682;9.030;2023-06-22T00:07:46;21.10;99.90
3954;DHT22;1991;48.682;9.030;2023-06-22T00:10:12;21.00;99.90
3954;DHT22;1991;48.682;9.030;2023-06-22T00:12:37;21.00;99.90
3954;DHT22;1991;48.682;9.030;2023-06-22T00:15:03;21.00;99.90
3954;DHT22;1991;48.682;9.030;2023-06-22T00:17:29;20.90;99.90
3954;DHT22;1991;48.682;9.030;2023-06-22T00:19:54;20.90;99.90
3954;DHT22;1991;48.682;9.030;2023-06-22T00:22:21;20.90;99.90
3954;DHT22;1991;48.682;9.030;2023-06-22T00:24:56;20.90;99.90
3954;DHT22;1991;48.682;9.030;2023-06-22T00:27:22;20.90;99.90
3954;DHT22;1991;48.682;9.030;2023-06-22T00:29:47;20.90;99.90
3954;DHT22;1991;48.682;9.030;2023-06-22T00:32:13;20.90;99.90
3954;DHT22;1991;48.682;9.030;2023-06-22T00:34:38;20.90;99.90
3954;DHT22;1991;48.682;9.030;2023-06-22T00:37:04;20.90;99.90
3954;DHT22;1991;48.682;9.030;2023-06-22T00:39:30;20.90;99.90
3954;DHT22;1991;48.682;9.030;2023-06-22T00:41:55;20.90;99.90
3954;DHT22;1991;48.682;9.030;2023-06-22T00:44:21;20.90;99.90
3954;DHT22;1991;48.682;9.030;2023-06-22T00:46:46;20.80;99.90
3954;DHT22;1991;48.682;9.030;2023-06-22T00:49:13;20.80;99.90
3954;DHT22;1991;48.682;9.030;2023-06-22T00:51:39;20.80;99.90
3954;DHT22;1991;48.682;9.030;2023-06-22T00:54:13;20.80;99.90
3954;DHT22;1991;48.682;9.030;2023-06-22T00:56:42;20.70;99.90
3954;DHT22;1991;48.682;9.030;2023-06-22T00:59:09;20.70;99.90
3954;DHT22;1991;48.682;9.030;2023-06-22T01:01:37;20.60;99.90
3954;DHT22;1991;48.682;9.030;2023-06-22T01:04:06;20.60;99.90
3954;DHT22;1991;48.682;9.030;2023-06-22T01:06:38;20.60;99.90
3954;DHT22;1991;48.682;9.030;2023-06-22T01:09:22;20.60;99.90
3954;DHT22;1991;48.682;9.030;2023-06-22T01:11:58;20.60;99.90
3954;DHT22;1991;48.682;9.030;2023-06-22T01:14:41;20.60;99.90
3954;DHT22;1991;48.682;9.030;2023-06-22T01:17:09;20.60;99.90
3954;DHT22;1991;48.682;9.030;2023-06-22T01:19:50;20.60;99.90
3954;DHT22;1991;48.682;9.030;2023-06-22T01:22:23;20.60;99.90
3954;DHT22;1991;48.682;9.030;2023-06-22T01:25:26;20.50;99.90
3954;DHT22;1991;48.682;9.030;2023-06-22T01:30:28;20.50;99.90
3954;DHT22;1991;48.682;9.030;2023-06-22T01:32:56;20.50;99.90
3954;DHT22;1991;48.682;9.030;2023-06-22T01:35:22;20.40;99.90
3954;DHT22;1991;48.682;9.030;2023-06-22T01:37:49;20.40;99.90
3954;DHT22;1991;48.682;9.030;2023-06-22T01:40:15;20.40;99.90
3954;DHT22;1991;48.682;9.030;2023-06-22T01:42:41;20.40;99.90
3954;DHT22;1991;48.682;9.030;2023-06-22T01:45:10;20.30;99.90
3954;DHT22;1991;48.682;9.030;2023-06-22T01:47:36;20.30;99.90
3954;DHT22;1991;48.682;9.030;2023-06-22T01:50:03;20.30;99.90
3954;DHT22;1991;48.682;9.030;2023-06-22T01:52:29;20.30;99.90
3954;DHT22;1991;48.682;9.030;2023-06-22T01:54:54;20.30;99.90
3954;DHT22;1991;48.682;9.030;2023-06-22T01:57:20;20.20;99.90
3954;DHT22;1991;48.682;9.030;2023-06-22T01:59:58;20.30;99.90
3954;DHT22;1991;48.682;9.030;2023-06-22T02:02:25;20.30;99.90
3954;DHT22;1991;48.682;9.030;2023-06-22T02:05:02;20.30;99.90
3954;DHT22;1991;48.682;9.030;2023-06-22T02:07:32;20.30;99.90
3954;DHT22;1991;48.682;9.030;2023-06-22T02:09:59;20.20;99.90
3954;DHT22;1991;48.682;9.030;2023-06-22T02:12:28;20.20;99.90
3954;DHT22;1991;48.682;9.030;2023-06-22T02:14:54;20.20;99.90
3954;DHT22;1991;48.682;9.030;2023-06-22T02:17:20;20.20;99.90
3954;DHT22;1991;48.682;9.030;2023-06-22T02:19:46;20.20;99.90
3954;DHT22;1991;48.682;9.030;2023-06-22T02:22:12;20.20;99.90
3954;DHT22;1991;48.682;9.030;2023-06-22T02:24:40;20.20;99.90
3954;DHT22;1991;48.682;9.030;2023-06-22T02:27:06;20.10;99.90
3954;DHT22;1991;48.682;9.030;2023-06-22T02:29:32;20.10;99.90
3954;DHT22;1991;48.682;9.030;2023-06-22T02:31:58;20.10;99.90
3954;DHT22;1991;48.682;9.030;2023-06-22T02:34:24;20.10;99.90
3954;DHT22;1991;48.682;9.030;2023-06-22T02:36:50;20.10;99.90
3954;DHT22;1991;48.682;9.030;2023-06-22T02:39:22;20.00;99.90
3954;DHT22;1991;48.682;9.030;2023-06-22T02:41:52;20.00;99.90
3954;DHT22;1991;48.682;9.030;2023-06-22T02:44:18;20.00;99.90
3954;DHT22;1991;48.682;9.030;2023-06-22T02:46:44;20.00;99.90
3954;DHT22;1991;48.682;9.030;2023-06-22T02:49:10;20.10;99.90
3954;DHT22;1991;48.682;9.030;2023-06-22T02:51:39;20.10;99.90
3954;DHT22;1991;48.682;9.030;2023-06-22T02:54:05;20.10;99.90
3954;DHT22;1991;48.682;9.030;2023-06-22T02:56:31;20.10;99.90
3954;DHT22;1991;48.682;9.030;2023-06-22T02:58:57;20.00;99.90
3954;DHT22;1991;48.682;9.030;2023-06-22T03:01:29;20.00;99.90
3954;DHT22;1991;48.682;9.030;2023-06-22T03:03:56;20.00;99.90
3954;DHT22;1991;48.682;9.030;2023-06-22T03:06:22;20.00;99.90
3954;DHT22;1991;48.682;9.030;2023-06-22T03:08:51;20.00;99.90
3954;DHT22;1991;48.682;9.030;2023-06-22T03:11:17;20.00;99.90
3954;DHT22;1991;48.682;9.030;2023-06-22T03:13:42;19.90;99.90
3954;DHT22;1991;48.682;9.030;2023-06-22T03:16:08;19.90;99.90
3954;DHT22;1991;48.682;9.030;2023-06-22T03:18:34;19.90;99.90
3954;DHT22;1991;48.682;9.030;2023-06-22T03:20:59;20.00;99.90
3954;DHT22;1991;48.682;9.030;2023-06-22T03:23:27;20.00;99.90
3954;DHT22;1991;48.682;9.030;2023-06-22T03:25:53;19.90;99.90
3954;DHT22;1991;48.682;9.030;2023-06-22T03:28:21;19.90;99.90
3954;DHT22;1991;48.682;9.030;2023-06-22T03:30:46;19.90;99.90
3954;DHT22;1991;48.682;9.030;2023-06-22T03:33:12;19.90;99.90
3954;DHT22;1991;48.682;9.030;2023-06-22T03:35:38;19.90;99.90
3954;DHT22;1991;48.682;9.030;2023-06-22T03:38:03;19.90;99.90
3954;DHT22;1991;48.682;9.030;2023-06-22T03:40:29;19.80;99.90
3954;DHT22;1991;48.682;9.030;2023-06-22T03:42:55;19.80;99.90
3954;DHT22;1991;48.682;9.030;2023-06-22T03:45:21;19.80;99.90
3954;DHT22;1991;48.682;9.030;2023-06-22T03:47:46;19.80;99.90
3954;DHT22;1991;48.682;9.030;2023-06-22T03:50:12;19.70;99.90
3954;DHT22;1991;48.682;9.030;2023-06-22T03:52:39;19.70;99.90
3954;DHT22;1991;48.682;9.030;2023-06-22T03:55:06;19.70;99.90
3954;DHT22;1991;48.682;9.030;2023-06-22T03:57:31;19.60;99.90
3954;DHT22;1991;48.682;9.030;2023-06-22T03:59:57;19.70;99.90
3954;DHT22;1991;48.682;9.030;2023-06-22T04:02:23;19.70;99.90
3954;DHT22;1991;48.682;9.030;2023-06-22T04:04:49;19.70;99.90
3954;DHT22;1991;48.682;9.030;2023-06-22T04:07:15;19.70;99.90
3954;DHT22;1991;48.682;9.030;2023-06-22T04:09:40;19.70;99.90
3954;DHT22;1991;48.682;9.030;2023-06-22T04:12:06;19.70;99.90
3954;DHT22;1991;48.682;9.030;2023-06-22T04:14:32;19.70;99.90
3954;DHT22;1991;48.682;9.030;2023-06-22T04:16:58;19.80;99.90
3954;DHT22;1991;48.682;9.030;2023-06-22T04:19:23;19.80;99.90
3954;DHT22;1991;48.682;9.030;2023-06-22T04:21:49;19.90;99.90
3954;DHT22;1991;48.682;9.030;2023-06-22T04:24:15;19.90;99.90
3954;DHT22;1991;48.682;9.030;2023-06-22T04:26:40;19.90;99.90
3954;DHT22;1991;48.682;9.030;2023-06-22T04:29:08;20.00;99.90
3954;DHT22;1991;48.682;9.030;2023-06-22T04:31:36;20.00;99.90
3954;DHT22;1991;48.682;9.030;2023-06-22T04:34:04;20.10;99.90
3954;DHT22;1991;48.682;9.030;2023-06-22T04:36:37;20.10;99.90
3954;DHT22;1991;48.682;9.030;2023-06-22T04:39:10;20.20;99.90
3954;DHT22;1991;48.682;9.030;2023-06-22T04:41:37;20.30;99.90
3954;DHT22;1991;48.682;9.030;2023-06-22T04:44:13;20.40;99.90
3954;DHT22;1991;48.682;9.030;2023-06-22T04:46:40;20.40;99.90
3954;DHT22;1991;48.682;9.030;2023-06-22T04:49:06;20.50;99.90
3954;DHT22;1991;48.682;9.030;2023-06-22T04:51:40;20.50;99.90
3954;DHT22;1991;48.682;9.030;2023-06-22T04:54:06;20.60;99.90
3954;DHT22;1991;48.682;9.030;2023-06-22T04:56:33;20.60;99.90
3954;DHT22;1991;48.682;9.030;2023-06-22T04:58:58;20.70;99.90
3954;DHT22;1991;48.682;9.030;2023-06-22T05:01:24;20.80;99.90
3954;DHT22;1991;48.682;9.030;2023-06-22T05:03:50;20.80;99.90
3954;DHT22;1991;48.682;9.030;2023-06-22T05:06:21;21.00;99.90
3954;DHT22;1991;48.682;9.030;2023-06-22T05:08:56;21.00;99.90
3954;DHT22;1991;48.682;9.030;2023-06-22T05:11:28;21.10;99.90
3954;DHT22;1991;48.682;9.030;2023-06-22T05:13:54;21.20;99.90
3954;DHT22;1991;48.682;9.030;2023-06-22T05:16:22;21.30;99.90
3954;DHT22;1991;48.682;9.030;2023-06-22T05:18:52;21.30;99.90
3954;DHT22;1991;48.682;9.030;2023-06-22T05:21:18;21.40;99.90
3954;DHT22;1991;48.682;9.030;2023-06-22T05:23:44;21.50;99.90
3954;DHT22;1991;48.682;9.030;2023-06-22T05:26:10;21.60;99.90
3954;DHT22;1991;48.682;9.030;2023-06-22T05:28:35;21.60;99.90
3954;DHT22;1991;48.682;9.030;2023-06-22T05:31:01;21.70;99.90
3954;DHT22;1991;48.682;9.030;2023-06-22T05:33:26;21.80;99.90
3954;DHT22;1991;48.682;9.030;2023-06-22T05:35:52;21.80;99.90
3954;DHT22;1991;48.682;9.030;2023-06-22T05:38:18;21.90;99.90
3954;DHT22;1991;48.682;9.030;2023-06-22T05:40:43;22.00;99.90
3954;DHT22;1991;48.682;9.030;2023-06-22T05:43:09;22.10;99.90
3954;DHT22;1991;48.682;9.030;2023-06-22T05:45:34;22.10;99.90
3954;DHT22;1991;48.682;9.030;2023-06-22T05:48:00;22.20;99.90
3954;DHT22;1991;48.682;9.030;2023-06-22T05:50:26;22.20;99.90
3954;DHT22;1991;48.682;9.030;2023-06-22T05:52:52;22.30;99.90
3954;DHT22;1991;48.682;9.030;2023-06-22T05:55:17;22.20;99.90
3954;DHT22;1991;48.682;9.030;2023-06-22T05:57:44;22.20;99.90
3954;DHT22;1991;48.682;9.030;2023-06-22T06:00:10;22.10;99.90
3954;DHT22;1991;48.682;9.030;2023-06-22T06:02:37;22.10;99.90
3954;DHT22;1991;48.682;9.030;2023-06-22T06:05:11;22.10;99.90
3954;DHT22;1991;48.682;9.030;2023-06-22T06:07:39;22.10;99.90
3954;DHT22;1991;48.682;9.030;2023-06-22T06:10:05;22.20;99.90
3954;DHT22;1991;48.682;9.030;2023-06-22T06:12:31;22.30;99.90
3954;DHT22;1991;48.682;9.030;2023-06-22T06:14:57;22.40;99.90
3954;DHT22;1991;48.682;9.030;2023-06-22T06:17:22;22.60;99.90
3954;DHT22;1991;48.682;9.030;2023-06-22T06:19:48;22.80;99.90
3954;DHT22;1991;48.682;9.030;2023-06-22T06:22:13;22.90;99.90
3954;DHT22;1991;48.682;9.030;2023-06-22T06:24:39;23.00;99.90
3954;DHT22;1991;48.682;9.030;2023-06-22T06:27:04;23.10;99.90
3954;DHT22;1991;48.682;9.030;2023-06-22T06:29:31;23.20;99.90
3954;DHT22;1991;48.682;9.030;2023-06-22T06:31:57;23.30;99.90
3954;DHT22;1991;48.682;9.030;2023-06-22T06:34:22;23.40;99.90
3954;DHT22;1991;48.682;9.030;2023-06-22T06:36:48;23.50;99.90
3954;DHT22;1991;48.682;9.030;2023-06-22T06:39:14;23.70;99.90
3954;DHT22;1991;48.682;9.030;2023-06-22T06:41:39;23.90;99.90
3954;DHT22;1991;48.682;9.030;2023-06-22T06:44:05;24.20;99.90
3954;DHT22;1991;48.682;9.030;2023-06-22T06:46:30;24.30;99.90
3954;DHT22;1991;48.682;9.030;2023-06-22T06:48:56;24.60;99.90
3954;DHT22;1991;48.682;9.030;2023-06-22T06:51:22;24.80;99.90
3954;DHT22;1991;48.682;9.030;2023-06-22T06:53:47;24.90;99.90
3954;DHT22;1991;48.682;9.030;2023-06-22T06:56:13;25.00;98.90
3954;DHT22;1991;48.682;9.030;2023-06-22T06:58:41;25.20;99.30
3954;DHT22;1991;48.682;9.030;2023-06-22T07:01:07;25.40;97.80
3954;DHT22;1991;48.682;9.030;2023-06-22T07:03:33;25.50;96.80
3954;DHT22;1991;48.682;9.030;2023-06-22T07:05:59;25.70;97.10
3954;DHT22;1991;48.682;9.030;2023-06-22T07:08:25;26.00;96.10
3954;DHT22;1991;48.682;9.030;2023-06-22T07:10:52;26.00;93.60
3954;DHT22;1991;48.682;9.030;2023-06-22T07:13:17;25.90;93.30
3954;DHT22;1991;48.682;9.030;2023-06-22T07:15:43;25.90;93.50
3954;DHT22;1991;48.682;9.030;2023-06-22T07:18:08;25.80;92.60
3954;DHT22;1991;48.682;9.030;2023-06-22T07:20:34;25.90;93.00
3954;DHT22;1991;48.682;9.030;2023-06-22T07:23:00;26.00;92.40
3954;DHT22;1991;48.682;9.030;2023-06-22T07:25:25;26.10;92.40
3954;DHT22;1991;48.682;9.030;2023-06-22T07:28:04;26.20;91.90
3954;DHT22;1991;48.682;9.030;2023-06-22T07:30:31;26.40;91.30
3954;DHT22;1991;48.682;9.030;2023-06-22T07:32:58;26.40;91.00
3954;DHT22;1991;48.682;9.030;2023-06-22T07:35:24;26.50;91.30
3954;DHT22;1991;48.682;9.030;2023-06-22T07:37:50;26.50;90.40
3954;DHT22;1991;48.682;9.030;2023-06-22T07:40:15;26.70;90.10
3954;DHT22;1991;48.682;9.030;2023-06-22T07:42:41;26.60;90.00
3954;DHT22;1991;48.682;9.030;2023-06-22T07:45:07;26.70;90.50
3954;DHT22;1991;48.682;9.030;2023-06-22T07:47:34;27.00;89.80
3954;DHT22;1991;48.682;9.030;2023-06-22T07:50:01;27.20;86.80
3954;DHT22;1991;48.682;9.030;2023-06-22T07:52:28;27.10;87.20
3954;DHT22;1991;48.682;9.030;2023-06-22T07:54:53;27.00;87.00
3954;DHT22;1991;48.682;9.030;2023-06-22T07:57:20;27.00;86.20
3954;DHT22;1991;48.682;9.030;2023-06-22T07:59:46;27.10;87.20
3954;DHT22;1991;48.682;9.030;2023-06-22T08:02:12;27.10;86.90
3954;DHT22;1991;48.682;9.030;2023-06-22T08:04:38;27.60;86.60
3954;DHT22;1991;48.682;9.030;2023-06-22T08:07:04;28.10;84.80
3954;DHT22;1991;48.682;9.030;2023-06-22T08:09:31;28.60;82.30
3954;DHT22;1991;48.682;9.030;2023-06-22T08:11:57;28.60;80.70
3954;DHT22;1991;48.682;9.030;2023-06-22T08:14:25;28.50;81.40
3954;DHT22;1991;48.682;9.030;2023-06-22T08:16:50;28.80;80.10
3954;DHT22;1991;48.682;9.030;2023-06-22T08:19:16;28.90;79.30
3954;DHT22;1991;48.682;9.030;2023-06-22T08:21:42;28.70;79.50
3954;DHT22;1991;48.682;9.030;2023-06-22T08:24:08;28.40;79.40
3954;DHT22;1991;48.682;9.030;2023-06-22T08:26:33;28.00;80.70
3954;DHT22;1991;48.682;9.030;2023-06-22T08:29:03;28.30;81.10
3954;DHT22;1991;48.682;9.030;2023-06-22T08:31:30;28.40;80.60
3954;DHT22;1991;48.682;9.030;2023-06-22T08:33:55;28.20;81.60
3954;DHT22;1991;48.682;9.030;2023-06-22T08:36:21;28.20;83.60
3954;DHT22;1991;48.682;9.030;2023-06-22T08:38:47;28.30;82.70
3954;DHT22;1991;48.682;9.030;2023-06-22T08:41:17;28.50;81.40
3954;DHT22;1991;48.682;9.030;2023-06-22T08:43:43;28.40;81.00
3954;DHT22;1991;48.682;9.030;2023-06-22T08:46:10;28.30;80.90
3954;DHT22;1991;48.682;9.030;2023-06-22T08:48:36;28.30;81.70
3954;DHT22;1991;48.682;9.030;2023-06-22T08:51:01;28.30;81.70
3954;DHT22;1991;48.682;9.030;2023-06-22T08:53:27;28.40;81.80
3954;DHT22;1991;48.682;9.030;2023-06-22T08:55:53;28.30;81.80
3954;DHT22;1991;48.682;9.030;2023-06-22T08:58:19;28.40;82.80
3954;DHT22;1991;48.682;9.030;2023-06-22T09:00:46;28.40;81.70
3954;DHT22;1991;48.682;9.030;2023-06-22T09:03:12;28.40;82.20
3954;DHT22;1991;48.682;9.030;2023-06-22T09:05:38;28.50;81.00
3954;DHT22;1991;48.682;9.030;2023-06-22T09:08:04;28.70;81.40
3954;DHT22;1991;48.682;9.030;2023-06-22T09:10:29;29.10;80.90
3954;DHT22;1991;48.682;9.030;2023-06-22T09:12:55;29.60;78.90
3954;DHT22;1991;48.682;9.030;2023-06-22T09:15:20;30.10;78.00
3954;DHT22;1991;48.682;9.030;2023-06-22T09:17:46;30.70;76.10
3954;DHT22;1991;48.682;9.030;2023-06-22T09:20:12;30.90;74.30
3954;DHT22;1991;48.682;9.030;2023-06-22T09:22:38;31.10;72.80
3954;DHT22;1991;48.682;9.030;2023-06-22T09:25:04;31.50;71.40
3954;DHT22;1991;48.682;9.030;2023-06-22T09:27:30;31.50;70.20
3954;DHT22;1991;48.682;9.030;2023-06-22T09:29:56;31.40;70.80
3954;DHT22;1991;48.682;9.030;2023-06-22T09:32:24;31.40;71.10
3954;DHT22;1991;48.682;9.030;2023-06-22T09:34:50;31.40;71.40
3954;DHT22;1991;48.682;9.030;2023-06-22T09:37:15;31.70;69.80
3954;DHT22;1991;48.682;9.030;2023-06-22T09:39:41;32.00;69.40
3954;DHT22;1991;48.682;9.030;2023-06-22T09:42:07;32.30;67.80
3954;DHT22;1991;48.682;9.030;2023-06-22T09:44:32;32.20;66.70
3954;DHT22;1991;48.682;9.030;2023-06-22T09:46:58;32.60;66.50
3954;DHT22;1991;48.682;9.030;2023-06-22T09:49:23;32.60;65.80
3954;DHT22;1991;48.682;9.030;2023-06-22T09:51:49;32.50;66.20
3954;DHT22;1991;48.682;9.030;2023-06-22T09:54:16;32.40;66.10
3954;DHT22;1991;48.682;9.030;2023-06-22T09:56:42;32.50;65.90
3954;DHT22;1991;48.682;9.030;2023-06-22T09:59:07;32.70;65.70
3954;DHT22;1991;48.682;9.030;2023-06-22T10:01:33;32.70;64.20
3954;DHT22;1991;48.682;9.030;2023-06-22T10:03:58;32.10;64.90
3954;DHT22;1991;48.682;9.030;2023-06-22T10:06:24;31.50;64.20
3954;DHT22;1991;48.682;9.030;2023-06-22T10:08:51;31.10;66.80
3954;DHT22;1991;48.682;9.030;2023-06-22T10:11:17;30.90;68.30
3954;DHT22;1991;48.682;9.030;2023-06-22T10:13:42;31.00;67.90
3954;DHT22;1991;48.682;9.030;2023-06-22T10:16:08;31.00;67.10
3954;DHT22;1991;48.682;9.030;2023-06-22T10:18:34;31.40;66.80
3954;DHT22;1991;48.682;9.030;2023-06-22T10:21:00;31.70;66.70
3954;DHT22;1991;48.682;9.030;2023-06-22T10:23:25;31.60;67.40
3954;DHT22;1991;48.682;9.030;2023-06-22T10:25:51;31.80;66.60
3954;DHT22;1991;48.682;9.030;2023-06-22T10:28:17;32.10;64.60
3954;DHT22;1991;48.682;9.030;2023-06-22T10:30:42;32.30;64.00
3954;DHT22;1991;48.682;9.030;2023-06-22T10:33:09;33.00;63.70
3954;DHT22;1991;48.682;9.030;2023-06-22T10:35:36;33.40;63.60
3954;DHT22;1991;48.682;9.030;2023-06-22T10:38:03;33.60;61.60
3954;DHT22;1991;48.682;9.030;2023-06-22T10:40:29;33.40;62.70
3954;DHT22;1991;48.682;9.030;2023-06-22T10:42:55;33.10;63.40
3954;DHT22;1991;48.682;9.030;2023-06-22T10:45:20;32.90;63.00
3954;DHT22;1991;48.682;9.030;2023-06-22T10:47:46;32.60;63.10
3954;DHT22;1991;48.682;9.030;2023-06-22T10:50:12;32.40;62.90
3954;DHT22;1991;48.682;9.030;2023-06-22T10:52:38;32.30;63.30
3954;DHT22;1991;48.682;9.030;2023-06-22T10:55:04;32.30;65.40
3954;DHT22;1991;48.682;9.030;2023-06-22T10:57:29;32.30;65.60
3954;DHT22;1991;48.682;9.030;2023-06-22T10:59:55;32.20;65.70
3954;DHT22;1991;48.682;9.030;2023-06-22T11:02:20;31.80;66.00
3954;DHT22;1991;48.682;9.030;2023-06-22T11:04:46;31.70;65.70
3954;DHT22;1991;48.682;9.030;2023-06-22T11:07:13;31.50;65.70
3954;DHT22;1991;48.682;9.030;2023-06-22T11:09:38;31.40;65.90
3954;DHT22;1991;48.682;9.030;2023-06-22T11:12:05;31.20;65.80
3954;DHT22;1991;48.682;9.030;2023-06-22T11:14:31;31.00;65.90
3954;DHT22;1991;48.682;9.030;2023-06-22T11:16:57;30.80;66.20
3954;DHT22;1991;48.682;9.030;2023-06-22T11:19:22;30.70;66.20
3954;DHT22;1991;48.682;9.030;2023-06-22T11:21:48;30.80;67.60
3954;DHT22;1991;48.682;9.030;2023-06-22T11:24:13;31.00;67.00
3954;DHT22;1991;48.682;9.030;2023-06-22T11:26:39;31.10;66.60
3954;DHT22;1991;48.682;9.030;2023-06-22T11:29:04;31.00;65.90
3954;DHT22;1991;48.682;9.030;2023-06-22T11:31:31;31.30;66.30
3954;DHT22;1991;48.682;9.030;2023-06-22T11:33:57;31.50;65.70
3954;DHT22;1991;48.682;9.030;2023-06-22T11:36:23;31.50;65.70
3954;DHT22;1991;48.682;9.030;2023-06-22T11:38:49;31.50;65.90
3954;DHT22;1991;48.682;9.030;2023-06-22T11:41:14;31.90;66.30
3954;DHT22;1991;48.682;9.030;2023-06-22T11:43:40;32.00;65.80
3954;DHT22;1991;48.682;9.030;2023-06-22T11:46:06;31.80;65.40
3954;DHT22;1991;48.682;9.030;2023-06-22T11:48:31;31.50;65.60
3954;DHT22;1991;48.682;9.030;2023-06-22T11:50:57;31.30;67.20
3954;DHT22;1991;48.682;9.030;2023-06-22T11:53:25;31.20;67.60
3954;DHT22;1991;48.682;9.030;2023-06-22T11:55:51;31.00;67.90
3954;DHT22;1991;48.682;9.030;2023-06-22T11:58:18;30.90;67.30
3954;DHT22;1991;48.682;9.030;2023-06-22T12:00:43;30.80;68.40
3954;DHT22;1991;48.682;9.030;2023-06-22T12:03:10;30.60;69.00
3954;DHT22;1991;48.682;9.030;2023-06-22T12:05:37;30.40;69.00
3954;DHT22;1991;48.682;9.030;2023-06-22T12:08:03;30.30;70.00
3954;DHT22;1991;48.682;9.030;2023-06-22T12:10:29;30.30;69.50
3954;DHT22;1991;48.682;9.030;2023-06-22T12:12:54;30.20;70.60
3954;DHT22;1991;48.682;9.030;2023-06-22T12:15:20;30.30;70.30
3954;DHT22;1991;48.682;9.030;2023-06-22T12:17:46;30.30;70.60
3954;DHT22;1991;48.682;9.030;2023-06-22T12:20:13;30.30;69.20
3954;DHT22;1991;48.682;9.030;2023-06-22T12:22:39;30.30;70.50
3954;DHT22;1991;48.682;9.030;2023-06-22T12:25:05;30.30;70.60
3954;DHT22;1991;48.682;9.030;2023-06-22T12:27:30;30.10;69.50
3954;DHT22;1991;48.682;9.030;2023-06-22T12:29:56;29.80;71.80
3954;DHT22;1991;48.682;9.030;2023-06-22T12:32:22;29.50;73.30
3954;DHT22;1991;48.682;9.030;2023-06-22T12:34:47;29.50;74.90
3954;DHT22;1991;48.682;9.030;2023-06-22T12:37:13;29.50;74.60
3954;DHT22;1991;48.682;9.030;2023-06-22T12:39:40;29.50;74.20
3954;DHT22;1991;48.682;9.030;2023-06-22T12:42:06;29.50;74.20
3954;DHT22;1991;48.682;9.030;2023-06-22T12:44:34;29.50;74.60
3954;DHT22;1991;48.682;9.030;2023-06-22T12:47:00;29.30;74.50
3954;DHT22;1991;48.682;9.030;2023-06-22T12:49:25;29.20;75.50
3954;DHT22;1991;48.682;9.030;2023-06-22T12:51:51;29.00;75.90
3954;DHT22;1991;48.682;9.030;2023-06-22T12:54:16;28.90;77.20
3954;DHT22;1991;48.682;9.030;2023-06-22T12:56:42;28.70;78.20
3954;DHT22;1991;48.682;9.030;2023-06-22T12:59:10;28.60;78.70
3954;DHT22;1991;48.682;9.030;2023-06-22T13:01:36;28.50;77.90
3954;DHT22;1991;48.682;9.030;2023-06-22T13:04:02;28.60;78.40
3954;DHT22;1991;48.682;9.030;2023-06-22T13:06:28;28.50;78.60
3954;DHT22;1991;48.682;9.030;2023-06-22T13:08:53;28.50;78.70
3954;DHT22;1991;48.682;9.030;2023-06-22T13:11:19;28.50;78.80
3954;DHT22;1991;48.682;9.030;2023-06-22T13:13:45;28.80;78.70
3954;DHT22;1991;48.682;9.030;2023-06-22T13:16:11;29.00;78.20
3954;DHT22;1991;48.682;9.030;2023-06-22T13:18:37;29.30;77.60
3954;DHT22;1991;48.682;9.030;2023-06-22T13:21:03;29.50;73.90
3954;DHT22;1991;48.682;9.030;2023-06-22T13:23:29;29.70;74.40
3954;DHT22;1991;48.682;9.030;2023-06-22T13:25:54;29.90;73.50
3954;DHT22;1991;48.682;9.030;2023-06-22T13:28:20;30.00;73.80
3954;DHT22;1991;48.682;9.030;2023-06-22T13:30:46;30.10;73.20
3954;DHT22;1991;48.682;9.030;2023-06-22T13:33:16;30.10;72.90
3954;DHT22;1991;48.682;9.030;2023-06-22T13:35:41;30.10;72.20
3954;DHT22;1991;48.682;9.030;2023-06-22T13:38:10;30.20;72.80
3954;DHT22;1991;48.682;9.030;2023-06-22T13:40:36;30.20;73.20
3954;DHT22;1991;48.682;9.030;2023-06-22T13:43:05;30.30;71.00
3954;DHT22;1991;48.682;9.030;2023-06-22T13:45:31;30.30;70.40
3954;DHT22;1991;48.682;9.030;2023-06-22T13:47:56;30.20;70.20
3954;DHT22;1991;48.682;9.030;2023-06-22T13:50:22;30.20;70.80
3954;DHT22;1991;48.682;9.030;2023-06-22T13:52:48;30.30;71.10
3954;DHT22;1991;48.682;9.030;2023-06-22T13:55:13;30.40;71.10
3954;DHT22;1991;48.682;9.030;2023-06-22T13:57:40;30.50;70.50
3954;DHT22;1991;48.682;9.030;2023-06-22T14:00:06;30.70;69.90
3954;DHT22;1991;48.682;9.030;2023-06-22T14:02:33;31.00;69.70
3954;DHT22;1991;48.682;9.030;2023-06-22T14:04:59;31.60;68.60
3954;DHT22;1991;48.682;9.030;2023-06-22T14:07:24;31.90;66.50
3954;DHT22;1991;48.682;9.030;2023-06-22T14:09:50;32.20;65.90
3954;DHT22;1991;48.682;9.030;2023-06-22T14:12:16;32.60;66.10
3954;DHT22;1991;48.682;9.030;2023-06-22T14:14:43;32.90;65.10
3954;DHT22;1991;48.682;9.030;2023-06-22T14:17:09;32.90;62.70
3954;DHT22;1991;48.682;9.030;2023-06-22T14:19:35;32.60;62.20
3954;DHT22;1991;48.682;9.030;2023-06-22T14:22:01;32.40;61.40
3954;DHT22;1991;48.682;9.030;2023-06-22T14:24:26;32.20;59.50
3954;DHT22;1991;48.682;9.030;2023-06-22T14:26:52;32.00;57.30
3954;DHT22;1991;48.682;9.030;2023-06-22T14:29:18;31.90;55.20
3954;DHT22;1991;48.682;9.030;2023-06-22T14:31:48;31.70;55.30
3954;DHT22;1991;48.682;9.030;2023-06-22T14:34:14;32.00;53.60
3954;DHT22;1991;48.682;9.030;2023-06-22T14:36:40;32.10;51.60
3954;DHT22;1991;48.682;9.030;2023-06-22T14:39:06;32.30;49.90
3954;DHT22;1991;48.682;9.030;2023-06-22T14:41:31;32.50;50.40
3954;DHT22;1991;48.682;9.030;2023-06-22T14:43:57;32.50;48.50
3954;DHT22;1991;48.682;9.030;2023-06-22T14:46:23;32.50;49.10
3954;DHT22;1991;48.682;9.030;2023-06-22T14:48:48;32.60;47.70
3954;DHT22;1991;48.682;9.030;2023-06-22T14:51:14;32.60;48.50
3954;DHT22;1991;48.682;9.030;2023-06-22T14:53:41;32.40;48.90
3954;DHT22;1991;48.682;9.030;2023-06-22T14:56:07;32.40;48.10
3954;DHT22;1991;48.682;9.030;2023-06-22T14:58:33;32.20;49.40
3954;DHT22;1991;48.682;9.030;2023-06-22T15:01:00;32.10;48.90
3954;DHT22;1991;48.682;9.030;2023-06-22T15:03:26;31.90;48.80
3954;DHT22;1991;48.682;9.030;2023-06-22T15:05:54;32.10;49.50
3954;DHT22;1991;48.682;9.030;2023-06-22T15:08:20;32.00;49.00
3954;DHT22;1991;48.682;9.030;2023-06-22T15:10:46;32.00;49.10
3954;DHT22;1991;48.682;9.030;2023-06-22T15:13:12;32.10;48.80
3954;DHT22;1991;48.682;9.030;2023-06-22T15:15:38;32.30;50.10
3954;DHT22;1991;48.682;9.030;2023-06-22T15:18:03;32.40;48.10
3954;DHT22;1991;48.682;9.030;2023-06-22T15:20:29;32.20;47.20
3954;DHT22;1991;48.682;9.030;2023-06-22T15:22:57;32.00;47.90
3954;DHT22;1991;48.682;9.030;2023-06-22T15:25:22;31.60;48.50
3954;DHT22;1991;48.682;9.030;2023-06-22T15:27:48;31.50;48.10
3954;DHT22;1991;48.682;9.030;2023-06-22T15:30:13;31.50;48.30
3954;DHT22;1991;48.682;9.030;2023-06-22T15:32:43;31.30;48.50
3954;DHT22;1991;48.682;9.030;2023-06-22T15:35:10;31.10;49.00
3954;DHT22;1991;48.682;9.030;2023-06-22T15:37:35;31.10;49.40
3954;DHT22;1991;48.682;9.030;2023-06-22T15:40:01;31.00;49.80
3954;DHT22;1991;48.682;9.030;2023-06-22T15:42:27;30.80;49.80
3954;DHT22;1991;48.682;9.030;2023-06-22T15:44:52;30.70;50.50
3954;DHT22;1991;48.682;9.030;2023-06-22T15:47:18;30.60;50.90
3954;DHT22;1991;48.682;9.030;2023-06-22T15:49:48;30.40;51.00
3954;DHT22;1991;48.682;9.030;2023-06-22T15:52:13;30.30;51.50
3954;DHT22;1991;48.682;9.030;2023-06-22T15:54:43;30.10;51.90
3954;DHT22;1991;48.682;9.030;2023-06-22T15:57:08;30.00;52.30
3954;DHT22;1991;48.682;9.030;2023-06-22T15:59:38;29.90;52.60